Time;durP1;ratioP1;P1;durP2;ratioP2;P2;SDS_P1;SDS_P2;PMS_P1;PMS_P2;Temp;Humidity;BMP_temperature;BMP_pressure;BME280_temperature;BME280_humidity;BME280_pressure;Samples;Min_cycle;Max_cycle;Signal;HPM_P1;HPM_P2
2022/01/27 00:02:19;;;;;;;24.83;10.27;;;3.30;99.90;;;;;;5066642;28;20252;-72
2022/01/27 00:04:52;;;;;;;20.70;9.50;;;3.30;99.90;;;;;;5054865;28;20222;-71
2022/01/27 00:07:19;;;;;;;22.10;10.10;;;3.30;99.90;;;;;;5068460;28;20216;-71
2022/01/27 00:10:05;;;;;;;26.13;10.87;;;3.30;99.90;;;;;;5067949;28;20943;-71
2022/01/27 00:12:32;;;;;;;22.10;9.97;;;3.30;99.90;;;;;;5062731;28;20234;-71
2022/01/27 00:15:10;;;;;;;22.20;9.97;;;3.30;99.90;;;;;;5065585;28;20217;-72
2022/01/27 00:17:43;;;;;;;21.77;9.83;;;3.30;99.90;;;;;;5067758;28;20227;-71
2022/01/27 00:20:11;;;;;;;21.10;10.33;;;3.40;99.90;;;;;;5068597;28;20229;-72
2022/01/27 00:22:38;;;;;;;25.37;10.93;;;3.40;99.90;;;;;;5066444;28;20203;-71
2022/01/27 00:25:06;;;;;;;23.07;9.97;;;3.30;99.90;;;;;;5069801;28;20210;-71
2022/01/27 00:27:34;;;;;;;20.47;9.97;;;3.30;99.90;;;;;;5067491;28;20221;-71
2022/01/27 00:30:03;;;;;;;23.13;10.20;;;3.30;99.90;;;;;;5069646;28;20205;-71
2022/01/27 00:32:31;;;;;;;21.77;9.90;;;3.30;99.90;;;;;;5064619;28;20220;-72
2022/01/27 00:34:59;;;;;;;23.33;10.90;;;3.20;99.90;;;;;;5067245;28;20217;-71
2022/01/27 00:37:26;;;;;;;20.27;10.47;;;3.20;99.90;;;;;;5068741;28;20257;-71
2022/01/27 00:39:53;;;;;;;23.43;10.93;;;3.10;99.90;;;;;;5069496;28;20193;-71
2022/01/27 00:42:20;;;;;;;24.00;10.77;;;3.10;99.90;;;;;;5065526;28;20541;-71
2022/01/27 00:44:47;;;;;;;23.83;10.60;;;3.20;99.90;;;;;;5068095;28;20287;-72
2022/01/27 00:47:14;;;;;;;24.13;10.67;;;3.10;99.90;;;;;;5068184;28;20201;-71
2022/01/27 00:49:41;;;;;;;22.10;10.83;;;3.20;99.90;;;;;;5069045;28;20225;-71
2022/01/27 00:52:14;;;;;;;22.50;11.17;;;3.30;99.90;;;;;;5078572;28;20229;-71
2022/01/27 00:54:41;;;;;;;22.20;10.83;;;3.30;99.90;;;;;;5068293;28;20221;-71
2022/01/27 00:57:16;;;;;;;21.33;10.60;;;3.30;99.90;;;;;;5067120;28;20700;-71
2022/01/27 01:02:38;;;;;;;25.00;11.50;;;3.10;99.90;;;;;;5059540;28;20198;-72
2022/01/27 01:07:42;;;;;;;23.43;10.13;;;3.40;99.90;;;;;;5066380;28;20206;-71
2022/01/27 01:15:31;;;;;;;22.03;10.47;;;3.00;99.90;;;;;;5067331;28;20218;-71
2022/01/27 01:20:49;;;;;;;26.27;11.30;;;3.10;99.90;;;;;;5060444;28;20313;-71
2022/01/27 01:34:22;;;;;;;25.90;11.07;;;3.20;99.90;;;;;;5041921;28;20321;-69
2022/01/27 01:39:26;;;;;;;25.70;10.77;;;3.20;99.90;;;;;;5064433;28;20200;-70
2022/01/27 01:41:54;;;;;;;26.00;11.23;;;3.20;99.90;;;;;;5057652;28;20202;-70
2022/01/27 01:44:21;;;;;;;25.47;11.00;;;3.20;99.90;;;;;;5077699;28;20221;-70
2022/01/27 01:46:48;;;;;;;25.83;11.43;;;3.20;99.90;;;;;;5065142;28;20288;-70
2022/01/27 01:49:15;;;;;;;24.03;11.03;;;3.00;99.90;;;;;;5068285;28;21499;-69
2022/01/27 01:51:43;;;;;;;25.40;11.90;;;3.00;99.90;;;;;;5065301;28;20206;-69
2022/01/27 01:54:12;;;;;;;23.63;10.57;;;3.10;99.90;;;;;;5068057;28;20232;-69
2022/01/27 01:56:40;;;;;;;24.00;11.07;;;3.10;99.90;;;;;;5066488;28;20232;-70
2022/01/27 01:59:07;;;;;;;22.20;10.90;;;3.10;99.90;;;;;;5064339;28;20186;-70
2022/01/27 02:01:35;;;;;;;25.57;11.37;;;3.10;99.90;;;;;;5078311;28;20192;-70
2022/01/27 02:04:07;;;;;;;27.30;11.60;;;3.10;99.90;;;;;;5060422;28;20222;-70
2022/01/27 02:06:44;;;;;;;23.30;10.60;;;3.10;99.90;;;;;;5063995;28;20194;-71
2022/01/27 02:09:29;;;;;;;25.13;11.00;;;3.10;99.90;;;;;;5067916;28;20189;-71
2022/01/27 02:20:13;;;;;;;28.40;11.43;;;3.10;99.90;;;;;;5074597;28;20644;-70
2022/01/27 02:22:40;;;;;;;26.80;11.43;;;3.10;99.90;;;;;;5069133;28;20205;-71
2022/01/27 02:25:07;;;;;;;28.00;11.17;;;3.00;99.90;;;;;;5071432;28;20319;-71
2022/01/27 02:27:34;;;;;;;26.83;11.07;;;3.00;99.90;;;;;;5070815;28;20194;-70
2022/01/27 02:30:00;;;;;;;28.67;10.87;;;3.10;99.90;;;;;;5070148;28;20199;-71
2022/01/27 02:32:27;;;;;;;29.20;12.30;;;3.00;99.90;;;;;;5067836;28;20206;-70
2022/01/27 02:34:54;;;;;;;26.20;11.07;;;3.00;99.90;;;;;;5069721;28;20575;-71
2022/01/27 02:37:20;;;;;;;28.40;11.70;;;3.10;99.90;;;;;;5065976;28;20218;-70
2022/01/27 02:39:47;;;;;;;26.67;11.27;;;3.00;99.90;;;;;;5070339;28;20194;-71
2022/01/27 02:42:34;;;;;;;26.07;11.13;;;2.90;99.90;;;;;;5066826;28;20205;-71
2022/01/27 02:45:16;;;;;;;25.93;11.47;;;3.00;99.90;;;;;;5069493;28;20218;-70
2022/01/27 02:47:43;;;;;;;24.70;10.73;;;3.00;99.90;;;;;;5070937;28;20190;-71
2022/01/27 02:50:10;;;;;;;25.43;10.87;;;3.00;99.90;;;;;;5067445;28;20206;-71
2022/01/27 02:52:37;;;;;;;22.43;10.10;;;2.90;99.90;;;;;;5068795;28;20194;-71
2022/01/27 02:55:04;;;;;;;27.90;11.30;;;2.90;99.90;;;;;;5059130;28;20218;-71
2022/01/27 02:57:31;;;;;;;24.80;10.90;;;2.90;99.90;;;;;;5070444;28;20226;-71
2022/01/27 02:59:58;;;;;;;30.00;11.70;;;2.90;99.90;;;;;;5061530;28;20198;-70
2022/01/27 03:02:25;;;;;;;27.30;10.93;;;2.90;99.90;;;;;;5064801;28;20200;-70
2022/01/27 03:04:52;;;;;;;27.23;11.20;;;2.90;99.90;;;;;;5067548;28;20296;-70
2022/01/27 03:07:19;;;;;;;27.50;10.63;;;3.00;99.90;;;;;;5068652;28;20698;-72
2022/01/27 03:09:46;;;;;;;25.10;11.17;;;3.00;99.90;;;;;;5069995;28;20227;-71
2022/01/27 03:12:13;;;;;;;24.33;11.10;;;2.90;99.90;;;;;;5068809;28;20483;-71
2022/01/27 03:14:41;;;;;;;24.20;11.93;;;2.90;99.90;;;;;;5067903;28;20218;-71
2022/01/27 03:17:09;;;;;;;23.87;10.60;;;3.00;99.90;;;;;;5067786;28;20221;-71
2022/01/27 03:19:37;;;;;;;28.03;10.67;;;3.00;99.90;;;;;;5068216;28;20675;-71
2022/01/27 03:22:05;;;;;;;26.93;11.27;;;3.00;99.90;;;;;;5065567;28;20205;-71
2022/01/27 03:24:32;;;;;;;24.27;11.50;;;3.10;99.90;;;;;;5067758;28;20214;-71
2022/01/27 03:27:00;;;;;;;28.07;11.60;;;3.10;99.90;;;;;;5068370;28;20202;-71
2022/01/27 03:29:27;;;;;;;25.83;11.33;;;3.10;99.90;;;;;;5069742;28;20194;-71
2022/01/27 03:31:55;;;;;;;25.83;10.97;;;3.10;99.90;;;;;;5067770;28;20217;-71
2022/01/27 03:34:22;;;;;;;28.10;11.10;;;3.20;99.90;;;;;;5066024;28;20214;-71
2022/01/27 03:36:49;;;;;;;25.87;10.30;;;3.10;99.90;;;;;;5069276;28;20594;-71
2022/01/27 03:39:19;;;;;;;27.50;10.57;;;3.20;99.90;;;;;;5065887;28;20189;-71
2022/01/27 03:41:50;;;;;;;25.00;11.20;;;3.10;99.90;;;;;;5066558;28;20202;-71
2022/01/27 03:44:20;;;;;;;23.67;11.13;;;3.10;99.90;;;;;;5066262;28;20219;-71
2022/01/27 03:46:49;;;;;;;28.23;11.60;;;3.10;99.90;;;;;;5069687;28;20202;-71
2022/01/27 03:49:16;;;;;;;26.57;10.53;;;3.00;99.90;;;;;;5069321;28;20212;-72
2022/01/27 03:51:47;;;;;;;25.10;10.70;;;3.10;99.90;;;;;;5068321;28;20209;-71
2022/01/27 03:54:14;;;;;;;23.50;10.43;;;3.10;99.90;;;;;;5069576;28;20218;-71
2022/01/27 03:56:41;;;;;;;27.43;11.07;;;3.00;99.90;;;;;;5067006;28;20225;-71
2022/01/27 03:59:08;;;;;;;26.37;10.73;;;3.00;99.90;;;;;;5063212;28;20190;-71
2022/01/27 04:01:36;;;;;;;26.10;10.63;;;3.00;99.90;;;;;;5066591;28;20186;-71
2022/01/27 04:04:03;;;;;;;27.40;9.90;;;2.90;99.90;;;;;;5069394;28;20705;-71
2022/01/27 04:06:37;;;;;;;26.73;11.43;;;2.90;99.90;;;;;;5067757;28;20198;-71
2022/01/27 04:09:06;;;;;;;25.13;10.23;;;2.90;99.90;;;;;;5070294;28;20189;-72
2022/01/27 04:11:33;;;;;;;24.87;10.50;;;2.90;99.90;;;;;;5065282;28;20202;-71
2022/01/27 04:14:00;;;;;;;23.20;10.10;;;2.90;99.90;;;;;;5069785;28;20213;-72
2022/01/27 04:16:27;;;;;;;26.67;10.67;;;2.90;99.90;;;;;;5064297;28;20207;-71
2022/01/27 04:18:53;;;;;;;25.07;9.90;;;3.00;99.90;;;;;;5069671;28;20190;-71
2022/01/27 04:21:20;;;;;;;23.73;10.07;;;3.00;99.90;;;;;;5065070;28;20194;-71
2022/01/27 04:23:49;;;;;;;24.80;10.77;;;3.00;99.90;;;;;;5069319;28;20690;-71
2022/01/27 04:26:19;;;;;;;25.40;10.97;;;3.00;99.90;;;;;;5066910;28;20190;-71
2022/01/27 04:28:48;;;;;;;26.77;10.43;;;3.00;99.90;;;;;;5068961;28;20194;-71
2022/01/27 04:31:15;;;;;;;26.43;11.33;;;3.10;99.90;;;;;;5067064;28;20198;-72
2022/01/27 04:33:42;;;;;;;25.43;10.53;;;3.10;99.90;;;;;;5066662;28;21000;-71
2022/01/27 04:36:19;;;;;;;26.23;10.70;;;3.20;99.90;;;;;;5067943;28;20644;-71
2022/01/27 04:39:01;;;;;;;27.97;10.43;;;3.20;99.90;;;;;;5068600;28;20214;-71
2022/01/27 04:44:31;;;;;;;26.63;10.97;;;3.10;99.90;;;;;;5067532;28;20222;-71
2022/01/27 04:47:07;;;;;;;27.00;10.40;;;3.10;99.90;;;;;;5078933;28;20306;-71
2022/01/27 04:49:34;;;;;;;25.37;10.23;;;3.10;99.90;;;;;;5068642;28;20198;-71
2022/01/27 04:52:01;;;;;;;27.87;10.43;;;3.00;99.90;;;;;;5062562;28;20198;-72
2022/01/27 04:54:35;;;;;;;27.30;11.00;;;3.10;99.90;;;;;;5065994;28;20222;-71
2022/01/27 04:57:03;;;;;;;26.60;10.60;;;3.00;99.90;;;;;;5066478;28;20969;-71
2022/01/27 04:59:36;;;;;;;24.53;10.63;;;3.00;99.90;;;;;;5063412;28;20229;-71
2022/01/27 05:02:08;;;;;;;21.53;10.40;;;3.00;99.90;;;;;;5067793;28;20192;-71
2022/01/27 05:04:41;;;;;;;24.97;10.07;;;3.00;99.90;;;;;;5068304;28;20214;-71
2022/01/27 05:07:08;;;;;;;25.53;10.27;;;2.90;99.90;;;;;;5066328;28;20198;-72
2022/01/27 05:09:36;;;;;;;24.03;10.27;;;2.90;99.90;;;;;;5068476;28;20190;-71
2022/01/27 05:12:33;;;;;;;24.73;10.27;;;3.00;99.90;;;;;;5064699;28;20201;-71
2022/01/27 05:14:54;;;;;;;27.33;9.80;;;3.00;99.90;;;;;;5066723;28;20267;-71
2022/01/27 05:17:20;;;;;;;23.43;9.83;;;3.00;99.90;;;;;;5066162;28;20222;-71
2022/01/27 05:19:47;;;;;;;24.50;10.93;;;3.00;99.90;;;;;;5064868;28;20198;-71
2022/01/27 05:22:14;;;;;;;22.80;9.97;;;3.00;99.90;;;;;;5061886;28;20196;-71
2022/01/27 05:24:41;;;;;;;24.07;10.50;;;2.90;99.90;;;;;;5067434;28;20301;-71
2022/01/27 05:27:08;;;;;;;26.63;10.00;;;2.90;99.90;;;;;;5062503;28;20286;-71
2022/01/27 05:29:35;;;;;;;24.07;10.13;;;2.90;99.90;;;;;;5062488;28;20209;-71
2022/01/27 05:32:02;;;;;;;24.43;9.67;;;3.00;99.90;;;;;;5078848;28;20656;-71
2022/01/27 05:34:29;;;;;;;27.53;11.07;;;2.90;99.90;;;;;;5062382;28;20581;-71
2022/01/27 05:36:55;;;;;;;24.90;9.97;;;3.00;99.90;;;;;;5067151;28;20221;-71
2022/01/27 05:39:24;;;;;;;26.47;10.10;;;3.00;99.90;;;;;;5071609;28;20221;-71
2022/01/27 05:41:51;;;;;;;26.47;10.27;;;3.00;99.90;;;;;;5065486;28;20201;-71
2022/01/27 05:44:18;;;;;;;22.77;9.63;;;3.00;99.90;;;;;;5063917;28;20355;-71
2022/01/27 05:46:44;;;;;;;23.50;9.83;;;2.90;99.90;;;;;;5067758;28;20194;-71
2022/01/27 05:49:11;;;;;;;26.43;10.13;;;3.00;99.90;;;;;;5062802;28;20193;-71
2022/01/27 05:51:38;;;;;;;22.80;9.43;;;3.00;99.90;;;;;;5071564;28;20205;-71
2022/01/27 05:54:05;;;;;;;23.10;9.77;;;2.90;99.90;;;;;;5069565;28;20214;-71
2022/01/27 05:56:31;;;;;;;22.90;9.40;;;3.00;99.90;;;;;;5071666;28;20201;-72
2022/01/27 05:58:58;;;;;;;23.20;9.43;;;3.00;99.90;;;;;;5065104;28;20308;-71
2022/01/27 06:01:24;;;;;;;26.30;9.03;;;2.90;99.90;;;;;;5073700;28;20205;-73
2022/01/27 06:03:52;;;;;;;24.63;9.80;;;3.00;99.90;;;;;;5070667;28;20213;-75
2022/01/27 06:06:19;;;;;;;22.90;8.87;;;3.10;99.90;;;;;;5071627;28;20205;-74
2022/01/27 06:08:46;;;;;;;24.67;9.73;;;3.10;99.90;;;;;;5069645;28;20661;-73
2022/01/27 06:11:13;;;;;;;18.20;9.17;;;3.20;99.90;;;;;;5070366;28;20210;-72
2022/01/27 06:13:40;;;;;;;21.27;9.63;;;3.20;99.90;;;;;;5067859;28;20232;-72
2022/01/27 06:16:10;;;;;;;25.17;9.13;;;3.20;99.90;;;;;;5069914;28;20194;-71
2022/01/27 06:18:38;;;;;;;25.00;9.57;;;3.20;99.90;;;;;;5068195;28;20223;-71
2022/01/27 06:21:06;;;;;;;21.20;9.00;;;3.20;99.90;;;;;;5065663;28;20197;-73
2022/01/27 06:23:33;;;;;;;24.23;9.10;;;3.30;99.90;;;;;;5069768;28;20199;-72
2022/01/27 06:26:01;;;;;;;24.47;9.17;;;3.20;99.90;;;;;;5071869;28;20209;-72
2022/01/27 06:28:28;;;;;;;23.80;9.90;;;3.30;99.90;;;;;;5067059;28;20656;-71
2022/01/27 06:30:54;;;;;;;20.37;8.80;;;3.30;99.90;;;;;;5069071;28;20657;-73
2022/01/27 06:33:22;;;;;;;21.87;8.83;;;3.40;99.90;;;;;;5070981;28;20210;-74
2022/01/27 06:35:49;;;;;;;25.87;9.03;;;3.40;99.90;;;;;;5072165;28;20205;-73
2022/01/27 06:38:17;;;;;;;20.40;8.53;;;3.50;99.90;;;;;;5064255;28;20683;-73
2022/01/27 06:40:44;;;;;;;21.27;8.77;;;3.50;99.90;;;;;;5068367;28;20198;-72
2022/01/27 06:43:15;;;;;;;22.93;9.77;;;3.50;99.90;;;;;;5070192;28;20240;-71
2022/01/27 06:45:42;;;;;;;24.07;8.97;;;3.50;99.90;;;;;;5067908;28;20204;-71
2022/01/27 06:48:08;;;;;;;26.60;9.03;;;3.50;99.90;;;;;;5069401;28;20407;-69
2022/01/27 06:50:37;;;;;;;21.87;8.43;;;3.50;99.90;;;;;;5065575;28;20206;-69
2022/01/27 06:53:04;;;;;;;23.23;9.33;;;3.50;99.90;;;;;;5069993;28;20197;-69
2022/01/27 06:55:31;;;;;;;23.03;9.57;;;3.50;99.90;;;;;;5063044;28;20635;-72
2022/01/27 06:57:58;;;;;;;20.40;8.47;;;3.50;99.90;;;;;;5070712;28;20223;-72
2022/01/27 07:00:25;;;;;;;20.47;8.40;;;3.50;99.90;;;;;;5066157;28;20210;-72
2022/01/27 07:02:51;;;;;;;24.37;9.37;;;3.50;99.90;;;;;;5060679;28;20209;-72
2022/01/27 07:05:19;;;;;;;19.47;7.83;;;3.50;99.90;;;;;;5062772;28;21421;-72
2022/01/27 07:07:45;;;;;;;20.57;8.63;;;3.60;99.90;;;;;;5066400;28;20204;-72
2022/01/27 07:10:13;;;;;;;15.70;7.83;;;3.70;99.90;;;;;;5065959;28;20811;-74
2022/01/27 07:12:54;;;;;;;18.43;8.23;;;3.60;99.90;;;;;;5060326;28;20206;-76
2022/01/27 07:15:21;;;;;;;22.67;9.00;;;3.60;99.90;;;;;;5066430;28;20246;-74
2022/01/27 07:17:47;;;;;;;23.03;8.27;;;3.60;99.90;;;;;;5065712;28;20218;-75
2022/01/27 07:20:15;;;;;;;19.50;8.63;;;3.60;99.90;;;;;;5066548;28;20203;-73
2022/01/27 07:22:44;;;;;;;21.07;8.50;;;3.50;99.90;;;;;;5062792;28;20215;-73
2022/01/27 07:25:11;;;;;;;19.47;9.73;;;3.60;99.90;;;;;;5062492;28;20234;-74
2022/01/27 07:27:37;;;;;;;20.13;10.00;;;3.50;99.90;;;;;;5063503;28;20563;-74
2022/01/27 07:30:05;;;;;;;20.53;9.00;;;3.50;99.90;;;;;;5069611;28;20248;-74
2022/01/27 07:32:32;;;;;;;22.23;8.90;;;3.50;99.90;;;;;;5069625;28;20193;-74
2022/01/27 07:35:00;;;;;;;21.93;8.70;;;3.40;99.90;;;;;;5069589;28;20227;-74
2022/01/27 07:37:27;;;;;;;17.50;8.60;;;3.40;99.90;;;;;;5067944;28;20580;-74
2022/01/27 07:39:54;;;;;;;24.07;9.10;;;3.40;99.90;;;;;;5069478;28;20197;-75
2022/01/27 07:42:20;;;;;;;20.30;8.67;;;3.40;99.90;;;;;;5065377;28;20198;-74
2022/01/27 07:44:47;;;;;;;20.10;8.53;;;3.30;99.90;;;;;;5063319;28;20222;-75
2022/01/27 07:47:14;;;;;;;16.53;8.40;;;3.30;99.90;;;;;;5066770;28;20206;-74
2022/01/27 07:49:41;;;;;;;20.60;8.70;;;3.40;99.90;;;;;;5058168;28;20610;-74
2022/01/27 07:52:11;;;;;;;18.07;8.00;;;3.30;99.90;;;;;;5065252;28;20190;-74
2022/01/27 07:54:37;;;;;;;15.87;7.57;;;3.40;99.90;;;;;;5052430;28;20222;-74
2022/01/27 07:57:04;;;;;;;19.73;8.23;;;3.50;99.90;;;;;;5060670;28;20187;-73
2022/01/27 07:59:32;;;;;;;19.43;8.37;;;3.50;99.90;;;;;;5069202;28;20218;-72
2022/01/27 08:01:58;;;;;;;16.33;8.33;;;3.50;99.90;;;;;;5062008;28;20210;-73
2022/01/27 08:04:26;;;;;;;19.13;7.83;;;3.50;99.90;;;;;;5061312;28;20763;-72
2022/01/27 08:06:52;;;;;;;19.90;8.07;;;3.50;99.90;;;;;;5069424;28;20500;-72
2022/01/27 08:09:19;;;;;;;17.40;7.90;;;3.50;99.90;;;;;;5065650;28;20214;-72
2022/01/27 08:11:46;;;;;;;21.80;9.17;;;3.60;99.90;;;;;;5077553;28;20322;-73
2022/01/27 08:14:12;;;;;;;19.37;8.83;;;3.60;99.90;;;;;;5067873;28;20217;-73
2022/01/27 08:16:39;;;;;;;21.80;8.50;;;3.70;99.90;;;;;;5064684;28;20235;-73
2022/01/27 08:19:06;;;;;;;18.10;8.23;;;3.70;99.90;;;;;;5067255;28;20255;-74
2022/01/27 08:21:33;;;;;;;20.57;8.13;;;3.70;99.90;;;;;;5073948;28;20190;-74
2022/01/27 08:24:00;;;;;;;16.23;7.67;;;3.70;99.90;;;;;;5067026;28;20224;-73
2022/01/27 08:26:34;;;;;;;18.60;8.50;;;3.60;99.90;;;;;;5067918;28;20198;-74
2022/01/27 08:31:55;;;;;;;21.60;8.57;;;3.70;99.90;;;;;;5066091;28;20194;-76
2022/01/27 08:34:34;;;;;;;15.83;7.10;;;3.80;99.90;;;;;;5060395;28;20229;-71
2022/01/27 08:37:07;;;;;;;21.43;8.77;;;3.70;99.90;;;;;;5065739;28;20207;-72
2022/01/27 08:39:34;;;;;;;18.10;8.97;;;3.80;99.90;;;;;;5065958;28;20224;-72
2022/01/27 08:42:02;;;;;;;20.20;9.70;;;3.90;99.90;;;;;;5065015;28;20198;-74
2022/01/27 08:44:29;;;;;;;20.57;10.10;;;3.70;99.90;;;;;;5062574;28;20227;-74
2022/01/27 08:46:55;;;;;;;21.50;10.43;;;3.80;99.90;;;;;;5064188;28;20203;-74
2022/01/27 08:49:25;;;;;;;22.00;10.77;;;3.90;99.90;;;;;;5062371;28;20609;-72
2022/01/27 08:51:54;;;;;;;21.20;10.27;;;3.90;99.90;;;;;;5062156;28;20284;-74
2022/01/27 08:54:22;;;;;;;20.07;9.60;;;3.90;99.90;;;;;;5060750;28;20226;-71
2022/01/27 08:56:49;;;;;;;22.83;10.13;;;3.90;99.90;;;;;;5064505;28;20567;-74
2022/01/27 08:59:18;;;;;;;24.20;10.10;;;4.00;99.90;;;;;;5063663;28;20305;-74
2022/01/27 09:01:46;;;;;;;24.27;11.13;;;4.00;99.90;;;;;;5067539;28;20230;-73
2022/01/27 09:04:13;;;;;;;22.67;10.27;;;4.10;99.90;;;;;;5063723;28;20222;-72
2022/01/27 09:06:40;;;;;;;20.70;10.33;;;4.10;99.90;;;;;;5067522;28;20206;-71
2022/01/27 09:09:06;;;;;;;20.57;9.63;;;4.10;99.90;;;;;;5066602;28;20225;-72
2022/01/27 09:11:34;;;;;;;17.93;9.70;;;4.10;99.90;;;;;;5065359;28;20213;-71
2022/01/27 09:14:02;;;;;;;20.93;9.40;;;4.10;99.90;;;;;;5061423;28;20751;-72
2022/01/27 09:16:30;;;;;;;25.00;10.83;;;4.20;99.90;;;;;;5063246;28;20197;-72
2022/01/27 09:19:18;;;;;;;18.97;9.70;;;4.20;99.90;;;;;;5058779;28;20636;-71
2022/01/27 09:21:46;;;;;;;25.57;10.30;;;4.10;99.90;;;;;;5056009;28;20342;-72
2022/01/27 09:24:19;;;;;;;21.73;9.73;;;4.10;99.90;;;;;;5058607;28;20229;-72
2022/01/27 09:29:15;;;;;;;25.40;9.90;;;4.20;99.90;;;;;;5063270;28;20231;-73
2022/01/27 09:31:43;;;;;;;20.57;9.80;;;4.40;99.90;;;;;;5063427;28;20200;-73
2022/01/27 09:34:11;;;;;;;23.23;9.83;;;4.50;99.90;;;;;;5063057;28;20220;-74
2022/01/27 09:36:38;;;;;;;19.97;9.10;;;4.50;99.90;;;;;;5062864;28;20638;-73
2022/01/27 09:39:05;;;;;;;19.93;8.97;;;4.50;99.90;;;;;;5062337;28;20228;-73
2022/01/27 09:41:38;;;;;;;22.30;9.33;;;4.50;99.90;;;;;;5060405;28;20198;-73
2022/01/27 09:44:09;;;;;;;18.27;8.83;;;4.50;99.90;;;;;;5067108;28;20219;-73
2022/01/27 09:46:36;;;;;;;19.00;9.13;;;4.60;99.90;;;;;;5067081;28;20257;-73
2022/01/27 09:49:12;;;;;;;21.47;9.17;;;4.60;99.90;;;;;;5057834;28;20227;-73
2022/01/27 09:51:43;;;;;;;20.97;9.30;;;4.70;99.90;;;;;;5064589;28;20200;-73
2022/01/27 09:54:15;;;;;;;19.23;9.40;;;4.70;99.90;;;;;;5066236;28;20501;-73
2022/01/27 09:56:43;;;;;;;21.00;9.70;;;4.70;99.90;;;;;;5067044;28;20201;-73
2022/01/27 09:59:14;;;;;;;23.90;9.67;;;4.80;99.90;;;;;;5063135;28;20221;-73
2022/01/27 10:02:00;;;;;;;19.63;8.70;;;4.80;99.90;;;;;;5057231;28;20196;-73
2022/01/27 10:04:56;;;;;;;21.10;9.00;;;4.80;99.90;;;;;;5057293;28;20216;-73
2022/01/27 10:07:40;;;;;;;22.50;9.77;;;4.90;99.90;;;;;;5060359;28;20280;-72
2022/01/27 10:10:14;;;;;;;19.90;8.93;;;5.10;99.90;;;;;;5064245;28;20204;-72
2022/01/27 10:12:50;;;;;;;20.47;9.87;;;5.20;99.90;;;;;;5062252;28;20206;-75
2022/01/27 10:15:20;;;;;;;19.57;9.17;;;5.30;99.90;;;;;;5064530;28;20228;-73
2022/01/27 10:18:14;;;;;;;20.03;9.70;;;5.30;99.90;;;;;;5057893;28;20194;-74
2022/01/27 10:20:48;;;;;;;20.77;9.40;;;5.30;99.90;;;;;;5063489;28;20196;-73
2022/01/27 10:23:24;;;;;;;19.30;8.57;;;5.40;99.90;;;;;;5062385;28;20193;-73
2022/01/27 10:25:54;;;;;;;20.60;8.10;;;5.40;99.90;;;;;;5060270;28;20194;-72
2022/01/27 10:28:27;;;;;;;17.37;8.00;;;5.60;99.90;;;;;;5067035;28;20285;-73
2022/01/27 10:31:11;;;;;;;16.03;8.00;;;5.60;99.90;;;;;;5067997;28;20198;-73
2022/01/27 10:34:05;;;;;;;17.87;7.77;;;5.60;99.90;;;;;;5059500;28;20692;-72
2022/01/27 10:36:36;;;;;;;15.67;8.10;;;5.50;99.90;;;;;;5067350;28;20695;-73
2022/01/27 10:39:09;;;;;;;20.47;8.70;;;5.40;99.90;;;;;;5051187;28;20221;-72
2022/01/27 10:41:38;;;;;;;16.57;7.90;;;5.30;99.90;;;;;;5060085;28;20294;-73
2022/01/27 10:44:11;;;;;;;17.70;8.83;;;5.40;99.90;;;;;;5065382;28;20218;-72
2022/01/27 10:46:45;;;;;;;16.23;8.20;;;5.40;99.90;;;;;;5064255;28;20663;-75
2022/01/27 10:49:24;;;;;;;21.53;8.17;;;5.50;99.90;;;;;;5077160;28;20817;-73
2022/01/27 10:51:54;;;;;;;18.43;8.13;;;5.50;99.90;;;;;;5077463;28;20210;-73
2022/01/27 10:54:40;;;;;;;17.63;8.10;;;5.50;99.90;;;;;;5053901;28;20222;-72
2022/01/27 10:57:10;;;;;;;16.40;8.00;;;5.60;99.90;;;;;;5056499;28;20648;-73
2022/01/27 10:59:38;;;;;;;21.80;9.63;;;5.80;99.90;;;;;;5062039;28;20223;-74
2022/01/27 11:02:07;;;;;;;18.77;8.30;;;5.90;99.90;;;;;;5057154;28;20201;-73
2022/01/27 11:04:37;;;;;;;14.10;7.67;;;6.00;99.90;;;;;;5059305;28;20206;-72
2022/01/27 11:07:08;;;;;;;16.20;8.20;;;6.10;99.90;;;;;;5069725;28;20201;-72
2022/01/27 11:09:42;;;;;;;16.03;8.00;;;6.10;99.90;;;;;;5063940;28;20200;-73
2022/01/27 11:12:16;;;;;;;13.13;7.47;;;6.10;99.90;;;;;;5058435;28;20194;-74
2022/01/27 11:14:44;;;;;;;18.63;8.23;;;6.00;99.90;;;;;;5067773;28;22542;-74
2022/01/27 11:17:17;;;;;;;21.47;8.30;;;6.00;99.90;;;;;;5061012;28;20202;-74
2022/01/27 11:27:37;;;;;;;17.00;8.13;;;5.70;99.90;;;;;;5058967;28;20189;-75
2022/01/27 11:30:09;;;;;;;18.30;7.77;;;5.70;99.90;;;;;;5071760;28;20657;-73
2022/01/27 11:33:01;;;;;;;13.70;6.97;;;5.70;99.90;;;;;;5068951;28;20206;-73
2022/01/27 11:36:15;;;;;;;16.57;7.87;;;5.80;99.90;;;;;;5060234;28;20251;-74
2022/01/27 11:38:43;;;;;;;17.90;7.93;;;5.70;99.90;;;;;;5070716;28;20214;-74
2022/01/27 11:41:41;;;;;;;17.60;7.87;;;5.80;99.90;;;;;;5066127;28;20186;-73
2022/01/27 11:44:32;;;;;;;16.50;8.03;;;5.90;99.90;;;;;;5056785;28;20224;-74
2022/01/27 11:47:09;;;;;;;12.87;6.83;;;5.90;99.90;;;;;;5069873;28;20194;-73
2022/01/27 11:49:59;;;;;;;14.60;7.73;;;6.00;99.90;;;;;;5063925;28;20223;-76
2022/01/27 11:52:30;;;;;;;16.53;7.87;;;5.90;99.90;;;;;;5075945;28;20720;-75
2022/01/27 11:55:24;;;;;;;16.73;7.87;;;5.90;99.90;;;;;;5064202;28;20214;-73
2022/01/27 11:57:52;;;;;;;14.77;7.63;;;5.80;99.90;;;;;;5062092;28;20718;-76
2022/01/27 12:00:26;;;;;;;14.43;7.60;;;5.80;99.90;;;;;;5062269;28;20508;-73
2022/01/27 12:03:02;;;;;;;13.53;6.67;;;5.80;99.90;;;;;;5065467;28;20208;-74
2022/01/27 12:05:29;;;;;;;16.00;7.13;;;5.80;99.90;;;;;;5060558;28;20311;-72
2022/01/27 12:08:17;;;;;;;15.27;7.67;;;5.80;99.90;;;;;;5060871;28;20194;-75
2022/01/27 12:11:08;;;;;;;19.87;8.47;;;5.70;99.90;;;;;;5058824;28;20224;-74
2022/01/27 12:13:55;;;;;;;19.90;8.43;;;5.70;99.90;;;;;;5060954;28;20201;-72
2022/01/27 12:16:39;;;;;;;14.00;7.27;;;5.80;99.90;;;;;;5057466;28;20198;-73
2022/01/27 12:19:12;;;;;;;15.73;7.53;;;5.80;99.90;;;;;;5063846;28;20214;-71
2022/01/27 12:22:01;;;;;;;17.23;7.60;;;5.70;99.90;;;;;;5062879;28;20194;-74
2022/01/27 12:24:30;;;;;;;15.40;7.33;;;5.70;99.90;;;;;;5061807;28;20214;-71
2022/01/27 12:27:07;;;;;;;12.37;7.00;;;5.80;99.90;;;;;;5062499;28;20590;-70
2022/01/27 12:29:35;;;;;;;15.53;6.87;;;5.90;99.90;;;;;;5056227;28;20194;-70
2022/01/27 12:32:17;;;;;;;14.90;7.33;;;5.90;99.90;;;;;;5058520;28;20209;-70
2022/01/27 12:34:50;;;;;;;14.27;6.87;;;5.90;99.90;;;;;;5066967;28;20218;-70
2022/01/27 12:37:23;;;;;;;14.50;7.67;;;5.90;99.90;;;;;;5068828;28;20628;-70
2022/01/27 12:39:59;;;;;;;18.00;6.80;;;5.80;99.90;;;;;;5061907;28;20266;-72
2022/01/27 12:42:37;;;;;;;19.20;7.33;;;5.80;99.90;;;;;;5066974;28;20731;-72
2022/01/27 12:45:09;;;;;;;13.93;6.67;;;5.90;99.90;;;;;;5064881;28;20731;-72
2022/01/27 12:47:44;;;;;;;13.40;6.90;;;5.90;99.90;;;;;;5061465;28;20243;-72
2022/01/27 12:50:19;;;;;;;15.20;6.33;;;6.00;99.90;;;;;;5058729;28;20276;-72
2022/01/27 12:52:48;;;;;;;14.27;6.33;;;6.00;99.90;;;;;;5065423;28;20204;-73
2022/01/27 12:55:25;;;;;;;11.23;6.40;;;5.90;99.90;;;;;;5064806;28;20232;-72
2022/01/27 12:57:55;;;;;;;12.43;6.73;;;6.00;99.90;;;;;;5062491;28;20220;-73
2022/01/27 13:00:22;;;;;;;12.37;6.17;;;6.00;99.90;;;;;;5060960;28;20822;-71
2022/01/27 13:02:49;;;;;;;13.17;6.50;;;6.10;99.90;;;;;;5056418;28;20205;-70
2022/01/27 13:05:16;;;;;;;17.10;6.73;;;6.10;99.90;;;;;;5051854;28;20241;-71
2022/01/27 13:07:47;;;;;;;11.47;6.53;;;6.00;99.90;;;;;;5058689;28;20205;-72
2022/01/27 13:10:18;;;;;;;13.83;6.70;;;6.00;99.90;;;;;;5063609;28;20202;-71
2022/01/27 13:15:21;;;;;;;14.27;7.20;;;6.00;99.90;;;;;;5066401;28;20230;-72
2022/01/27 13:17:55;;;;;;;14.87;7.57;;;5.90;99.90;;;;;;5066462;28;20679;-71
2022/01/27 13:20:38;;;;;;;16.97;7.93;;;6.10;99.90;;;;;;5059137;28;20311;-71
2022/01/27 13:23:18;;;;;;;14.40;7.60;;;6.30;99.90;;;;;;5062233;28;20460;-71
2022/01/27 13:25:52;;;;;;;17.17;7.13;;;6.30;99.90;;;;;;5061874;28;20749;-71
2022/01/27 13:28:25;;;;;;;15.73;8.43;;;6.40;99.90;;;;;;5058046;28;20191;-71
2022/01/27 13:30:55;;;;;;;16.33;7.77;;;6.10;99.90;;;;;;5065296;28;20563;-71
2022/01/27 13:33:24;;;;;;;18.07;8.23;;;6.10;99.90;;;;;;5069009;28;20230;-71
2022/01/27 13:35:52;;;;;;;16.83;7.47;;;6.20;99.90;;;;;;5061312;28;20194;-70
2022/01/27 13:38:26;;;;;;;14.10;7.53;;;6.20;99.90;;;;;;5065713;28;20202;-71
2022/01/27 13:41:16;;;;;;;15.57;8.30;;;6.10;99.90;;;;;;5061819;28;20214;-71
2022/01/27 13:43:49;;;;;;;17.57;7.90;;;6.20;99.90;;;;;;5053644;28;20226;-71
2022/01/27 13:46:37;;;;;;;16.27;7.40;;;6.20;99.90;;;;;;5060980;28;20202;-70
2022/01/27 13:49:08;;;;;;;14.50;7.23;;;6.10;99.90;;;;;;5064311;28;20677;-70
2022/01/27 13:51:47;;;;;;;13.73;7.33;;;5.90;99.90;;;;;;5061837;28;20950;-69
2022/01/27 13:54:14;;;;;;;16.00;7.40;;;5.90;99.90;;;;;;5062910;28;20221;-71
2022/01/27 13:56:50;;;;;;;18.97;8.07;;;5.80;99.90;;;;;;5076059;28;20193;-71